Time;durP1;ratioP1;P1;durP2;ratioP2;P2;SDS_P1;SDS_P2;PMS_P1;PMS_P2;Temp;Humidity;BMP_temperature;BMP_pressure;BME280_temperature;BME280_humidity;BME280_pressure;Samples;Min_cycle;Max_cycle;Signal;HPM_P1;HPM_P2
2021/07/24 00:01:07;;;;;;;16.98;15.15;;;;;;;;;;5053909;28;20647;-61
2021/07/24 00:03:36;;;;;;;16.23;14.52;;;;;;;;;;5054218;28;20274;-61
2021/07/24 00:06:04;;;;;;;17.63;15.93;;;;;;;;;;5054092;28;20287;-62
2021/07/24 00:08:33;;;;;;;17.17;15.35;;;;;;;;;;5054269;28;20198;-61
2021/07/24 00:11:04;;;;;;;16.55;14.93;;;;;;;;;;5054141;28;20208;-61
2021/07/24 00:13:33;;;;;;;17.83;16.02;;;;;;;;;;5059594;28;20308;-62
2021/07/24 00:16:01;;;;;;;16.23;14.63;;;;;;;;;;5073822;28;20205;-61
2021/07/24 00:18:30;;;;;;;18.38;15.40;;;;;;;;;;5073934;28;20209;-62
2021/07/24 00:20:58;;;;;;;19.38;16.23;;;;;;;;;;5073963;28;20224;-61
2021/07/24 00:23:26;;;;;;;18.02;15.48;;;;;;;;;;5073826;28;20549;-61
2021/07/24 00:25:54;;;;;;;17.52;15.63;;;;;;;;;;5073599;28;20303;-61
2021/07/24 00:28:23;;;;;;;16.83;15.13;;;;;;;;;;5073251;28;20764;-61
2021/07/24 00:30:52;;;;;;;16.83;15.07;;;;;;;;;;5073612;28;20201;-61
2021/07/24 00:33:20;;;;;;;19.58;15.80;;;;;;;;;;5073603;28;20205;-61
2021/07/24 00:35:48;;;;;;;18.00;16.10;;;;;;;;;;5073550;28;20284;-62
2021/07/24 00:38:17;;;;;;;17.17;15.40;;;;;;;;;;5073471;28;20644;-61
2021/07/24 00:40:50;;;;;;;17.67;15.88;;;;;;;;;;5073694;28;20185;-61
2021/07/24 00:43:19;;;;;;;17.42;14.75;;;;;;;;;;5073142;28;20241;-60
2021/07/24 00:45:49;;;;;;;16.63;15.02;;;;;;;;;;5073260;28;20200;-60
2021/07/24 00:48:19;;;;;;;17.92;15.05;;;;;;;;;;5073416;28;20213;-61
2021/07/24 00:50:48;;;;;;;16.48;14.75;;;;;;;;;;5073386;28;20267;-59
2021/07/24 00:53:22;;;;;;;16.85;14.90;;;;;;;;;;5073325;28;20212;-61
2021/07/24 00:55:51;;;;;;;16.25;14.55;;;;;;;;;;5073121;28;20187;-61
2021/07/24 00:58:22;;;;;;;16.55;15.05;;;;;;;;;;5073344;28;20217;-60
2021/07/24 01:00:52;;;;;;;15.90;14.40;;;;;;;;;;5077627;28;20215;-60
2021/07/24 01:03:20;;;;;;;15.80;14.20;;;;;;;;;;5078429;28;20204;-61
2021/07/24 01:05:51;;;;;;;16.20;14.57;;;;;;;;;;5076676;28;20647;-61
2021/07/24 01:08:19;;;;;;;22.75;15.68;;;;;;;;;;5072911;28;20704;-60
2021/07/24 01:10:48;;;;;;;16.67;14.80;;;;;;;;;;5072047;28;20236;-60
2021/07/24 01:13:16;;;;;;;15.98;14.35;;;;;;;;;;5069536;28;20229;-60
2021/07/24 01:15:45;;;;;;;16.75;15.07;;;;;;;;;;5052567;28;20201;-61
2021/07/24 01:18:15;;;;;;;16.45;14.70;;;;;;;;;;5052842;28;20312;-62
2021/07/24 01:20:44;;;;;;;15.38;13.77;;;;;;;;;;5052583;28;20207;-60
2021/07/24 01:23:14;;;;;;;16.42;14.82;;;;;;;;;;5052758;28;20546;-60
2021/07/24 01:25:44;;;;;;;16.83;15.13;;;;;;;;;;5052831;28;20293;-60
2021/07/24 01:28:12;;;;;;;16.50;14.75;;;;;;;;;;5052796;28;20197;-61
2021/07/24 01:30:42;;;;;;;15.27;13.88;;;;;;;;;;5052483;28;20201;-60
2021/07/24 01:33:10;;;;;;;16.20;14.60;;;;;;;;;;5052913;28;20200;-61
2021/07/24 01:35:46;;;;;;;17.02;14.55;;;;;;;;;;5052645;28;20292;-60
2021/07/24 01:38:15;;;;;;;14.77;13.40;;;;;;;;;;5052555;28;20264;-61
2021/07/24 01:40:44;;;;;;;16.98;14.35;;;;;;;;;;5052147;28;20225;-61
2021/07/24 01:43:12;;;;;;;15.13;13.48;;;;;;;;;;5052019;28;20229;-61
2021/07/24 01:45:41;;;;;;;15.52;13.10;;;;;;;;;;5052495;28;20321;-60
2021/07/24 01:48:14;;;;;;;16.33;13.95;;;;;;;;;;5052494;28;20292;-59
2021/07/24 01:53:31;;;;;;;15.32;13.73;;;;;;;;;;5071403;28;20195;-61
2021/07/24 01:56:01;;;;;;;14.60;13.20;;;;;;;;;;5072106;28;20196;-61
2021/07/24 01:58:31;;;;;;;14.52;13.02;;;;;;;;;;5071817;28;20722;-61
2021/07/24 02:01:00;;;;;;;14.35;12.85;;;;;;;;;;5072131;28;20218;-61
2021/07/24 02:03:31;;;;;;;13.88;12.48;;;;;;;;;;5072378;28;20258;-61
2021/07/24 02:06:00;;;;;;;13.20;11.90;;;;;;;;;;5072524;28;20203;-62
2021/07/24 02:08:30;;;;;;;13.95;12.48;;;;;;;;;;5072277;28;20653;-60
2021/07/24 02:11:00;;;;;;;13.23;11.95;;;;;;;;;;5072493;28;20291;-61
2021/07/24 02:13:28;;;;;;;13.70;12.30;;;;;;;;;;5071686;28;20664;-60
2021/07/24 02:15:57;;;;;;;17.30;13.48;;;;;;;;;;5072026;28;20204;-60
2021/07/24 02:18:25;;;;;;;12.90;11.60;;;;;;;;;;5072055;28;20213;-61
2021/07/24 02:20:54;;;;;;;12.38;11.25;;;;;;;;;;5073094;28;20310;-60
2021/07/24 02:23:22;;;;;;;13.68;12.32;;;;;;;;;;5076244;28;20207;-60
2021/07/24 02:25:52;;;;;;;13.70;12.00;;;;;;;;;;5076463;28;20204;-60
2021/07/24 02:28:20;;;;;;;14.63;11.65;;;;;;;;;;5075974;28;20197;-61
2021/07/24 02:30:48;;;;;;;12.50;11.00;;;;;;;;;;5075882;28;20292;-60
2021/07/24 02:33:17;;;;;;;15.05;11.15;;;;;;;;;;5075717;28;20200;-61
2021/07/24 02:35:46;;;;;;;13.77;11.93;;;;;;;;;;5075784;28;20691;-61
2021/07/24 02:38:14;;;;;;;12.18;10.95;;;;;;;;;;5075844;28;20228;-61
2021/07/24 02:40:42;;;;;;;12.68;11.38;;;;;;;;;;5075877;28;20291;-60
2021/07/24 02:43:12;;;;;;;13.15;10.77;;;;;;;;;;5075103;28;20593;-60
2021/07/24 02:45:40;;;;;;;12.80;11.50;;;;;;;;;;5075649;28;20645;-61
2021/07/24 02:48:08;;;;;;;12.45;11.25;;;;;;;;;;5075940;28;20209;-61
2021/07/24 02:50:36;;;;;;;12.90;11.52;;;;;;;;;;5075664;28;20831;-60
2021/07/24 02:53:05;;;;;;;12.02;10.93;;;;;;;;;;5075662;28;20201;-61
2021/07/24 02:55:33;;;;;;;12.00;10.80;;;;;;;;;;5075720;28;20204;-61
2021/07/24 02:58:01;;;;;;;12.32;10.73;;;;;;;;;;5075216;28;20201;-61
2021/07/24 03:00:31;;;;;;;11.68;10.48;;;;;;;;;;5075564;28;20222;-60
2021/07/24 03:02:59;;;;;;;12.32;10.35;;;;;;;;;;5075435;28;20197;-60
2021/07/24 03:05:28;;;;;;;12.93;10.63;;;;;;;;;;5075386;28;20527;-60
2021/07/24 03:07:56;;;;;;;11.57;10.45;;;;;;;;;;5075037;28;20536;-61
2021/07/24 03:10:24;;;;;;;11.80;10.10;;;;;;;;;;5075381;28;20200;-61
2021/07/24 03:12:52;;;;;;;11.23;9.68;;;;;;;;;;5075168;28;20203;-61
2021/07/24 03:15:20;;;;;;;12.32;10.45;;;;;;;;;;5054926;28;20202;-61
2021/07/24 03:17:50;;;;;;;11.13;10.07;;;;;;;;;;5055169;28;20285;-61
2021/07/24 03:20:18;;;;;;;11.60;10.35;;;;;;;;;;5054746;28;20771;-60
2021/07/24 03:22:46;;;;;;;11.25;10.15;;;;;;;;;;5055081;28;20293;-60
2021/07/24 03:25:14;;;;;;;11.50;10.32;;;;;;;;;;5055508;28;20287;-61
2021/07/24 03:27:43;;;;;;;11.10;10.00;;;;;;;;;;5055078;28;20205;-61
2021/07/24 03:30:12;;;;;;;10.77;9.52;;;;;;;;;;5054732;28;20197;-60
2021/07/24 03:32:40;;;;;;;12.45;10.55;;;;;;;;;;5053832;28;20201;-60
2021/07/24 03:35:09;;;;;;;11.43;10.05;;;;;;;;;;5054668;28;20240;-62
2021/07/24 03:37:38;;;;;;;10.23;9.20;;;;;;;;;;5054864;28;20259;-62
2021/07/24 03:40:06;;;;;;;11.80;10.40;;;;;;;;;;5054640;28;20214;-62
2021/07/24 03:42:35;;;;;;;13.15;9.52;;;;;;;;;;5054290;28;20211;-61
2021/07/24 03:45:03;;;;;;;11.23;9.63;;;;;;;;;;5054562;28;20212;-61
2021/07/24 03:47:33;;;;;;;11.60;10.20;;;;;;;;;;5054329;28;20668;-61
2021/07/24 03:50:01;;;;;;;10.52;9.52;;;;;;;;;;5054676;28;20268;-61
2021/07/24 03:52:30;;;;;;;10.65;9.57;;;;;;;;;;5065017;28;20205;-60
2021/07/24 03:54:59;;;;;;;10.75;9.30;;;;;;;;;;5074453;28;20207;-60
2021/07/24 03:57:31;;;;;;;11.63;9.60;;;;;;;;;;5074505;28;20185;-61
2021/07/24 04:00:02;;;;;;;10.10;9.10;;;;;;;;;;5074201;28;20227;-61
2021/07/24 04:02:32;;;;;;;11.20;9.57;;;;;;;;;;5074369;28;20557;-61
2021/07/24 04:05:01;;;;;;;10.48;9.38;;;;;;;;;;5074622;28;20204;-60
2021/07/24 04:07:30;;;;;;;10.23;9.20;;;;;;;;;;5074251;28;20200;-61
2021/07/24 04:09:59;;;;;;;10.02;9.02;;;;;;;;;;5074129;28;20223;-61
2021/07/24 04:12:27;;;;;;;10.00;9.00;;;;;;;;;;5074111;28;20209;-62
2021/07/24 04:14:55;;;;;;;9.45;8.23;;;;;;;;;;5073935;28;20207;-59
2021/07/24 04:17:23;;;;;;;11.30;8.13;;;;;;;;;;5073998;28;20201;-62
2021/07/24 04:19:54;;;;;;;9.02;8.23;;;;;;;;;;5074046;28;20255;-61
2021/07/24 04:22:22;;;;;;;10.00;8.98;;;;;;;;;;5074068;28;20258;-61
2021/07/24 04:24:51;;;;;;;10.57;8.98;;;;;;;;;;5073873;28;20299;-60
2021/07/24 04:27:20;;;;;;;9.57;8.63;;;;;;;;;;5073894;28;20201;-61
2021/07/24 04:29:48;;;;;;;8.85;7.97;;;;;;;;;;5073552;28;20207;-61
2021/07/24 04:32:17;;;;;;;8.40;7.60;;;;;;;;;;5073505;28;20201;-59
2021/07/24 04:34:45;;;;;;;9.93;8.93;;;;;;;;;;5073654;28;20647;-60
2021/07/24 04:37:13;;;;;;;9.40;8.45;;;;;;;;;;5073644;28;20199;-61
2021/07/24 04:39:41;;;;;;;10.13;8.23;;;;;;;;;;5073610;28;20224;-60
2021/07/24 04:42:11;;;;;;;8.55;7.75;;;;;;;;;;5073599;28;20200;-60
2021/07/24 04:44:39;;;;;;;9.25;8.35;;;;;;;;;;5072697;28;20247;-61
2021/07/24 04:47:07;;;;;;;10.45;8.23;;;;;;;;;;5073004;28;20239;-62
2021/07/24 04:49:36;;;;;;;8.27;7.47;;;;;;;;;;5073369;28;20193;-61
2021/07/24 04:52:04;;;;;;;13.20;9.00;;;;;;;;;;5072928;28;20232;-62
2021/07/24 04:54:32;;;;;;;9.02;8.13;;;;;;;;;;5073335;28;20568;-60
2021/07/24 04:57:00;;;;;;;10.68;8.75;;;;;;;;;;5073328;28;20196;-61
2021/07/24 04:59:30;;;;;;;9.48;8.48;;;;;;;;;;5072905;28;20200;-61
2021/07/24 05:01:58;;;;;;;11.48;8.52;;;;;;;;;;5072971;28;20208;-60
2021/07/24 05:04:27;;;;;;;10.07;8.63;;;;;;;;;;5073108;28;20565;-61
2021/07/24 05:06:56;;;;;;;10.13;8.60;;;;;;;;;;5073049;28;20205;-61
2021/07/24 05:09:25;;;;;;;8.52;7.65;;;;;;;;;;5073010;28;20204;-62
2021/07/24 05:11:53;;;;;;;9.15;8.20;;;;;;;;;;5072993;28;20295;-61
2021/07/24 05:14:21;;;;;;;8.68;7.80;;;;;;;;;;5060503;28;20215;-61
2021/07/24 05:16:51;;;;;;;13.23;7.95;;;;;;;;;;5052888;28;20229;-61
2021/07/24 05:19:19;;;;;;;9.98;8.23;;;;;;;;;;5052556;28;20201;-61
2021/07/24 05:21:47;;;;;;;9.23;8.38;;;;;;;;;;5052863;28;20258;-60
2021/07/24 05:24:16;;;;;;;8.55;7.35;;;;;;;;;;5052762;28;20197;-60
2021/07/24 05:26:44;;;;;;;9.48;8.07;;;;;;;;;;5052518;28;20653;-61
2021/07/24 05:29:13;;;;;;;9.48;8.45;;;;;;;;;;5052625;28;20197;-60
2021/07/24 05:31:41;;;;;;;11.10;9.80;;;;;;;;;;5052576;28;20194;-61
2021/07/24 05:34:10;;;;;;;9.25;8.25;;;;;;;;;;5052281;28;20224;-61
2021/07/24 05:36:38;;;;;;;9.07;8.13;;;;;;;;;;5052343;28;20212;-62
2021/07/24 05:39:07;;;;;;;9.65;8.75;;;;;;;;;;5052723;28;20296;-61
2021/07/24 05:41:35;;;;;;;10.98;9.80;;;;;;;;;;5052237;28;20276;-60
2021/07/24 05:44:03;;;;;;;10.95;9.95;;;;;;;;;;5051899;28;20245;-61
2021/07/24 05:46:31;;;;;;;10.77;9.55;;;;;;;;;;5052114;28;20296;-60
2021/07/24 05:49:00;;;;;;;9.75;8.85;;;;;;;;;;5052562;28;20208;-60
2021/07/24 05:51:29;;;;;;;10.25;9.20;;;;;;;;;;5054683;28;20305;-60
2021/07/24 05:53:57;;;;;;;11.15;9.48;;;;;;;;;;5072246;28;20200;-62
2021/07/24 05:56:25;;;;;;;10.25;9.25;;;;;;;;;;5071700;28;20295;-61
2021/07/24 05:58:54;;;;;;;10.35;8.57;;;;;;;;;;5072017;28;20220;-61
2021/07/24 06:01:22;;;;;;;9.18;7.88;;;;;;;;;;5072143;28;20310;-60
2021/07/24 06:03:51;;;;;;;11.15;8.85;;;;;;;;;;5075488;28;20220;-61
2021/07/24 06:06:19;;;;;;;10.25;9.25;;;;;;;;;;5074962;28;20723;-60
2021/07/24 06:08:48;;;;;;;10.98;9.63;;;;;;;;;;5074520;28;20200;-61
2021/07/24 06:11:17;;;;;;;10.90;9.77;;;;;;;;;;5071874;28;20201;-61
2021/07/24 06:13:45;;;;;;;11.23;10.13;;;;;;;;;;5072016;28;20200;-61
2021/07/24 06:16:13;;;;;;;12.15;10.48;;;;;;;;;;5072095;28;20295;-61
2021/07/24 06:18:41;;;;;;;12.55;11.25;;;;;;;;;;5071776;28;20259;-61
2021/07/24 06:21:14;;;;;;;13.27;11.75;;;;;;;;;;5071620;28;20326;-61
2021/07/24 06:23:42;;;;;;;16.50;12.75;;;;;;;;;;5071933;28;20280;-61
2021/07/24 06:26:12;;;;;;;13.48;12.10;;;;;;;;;;5071982;28;20201;-61
2021/07/24 06:28:40;;;;;;;15.35;13.75;;;;;;;;;;5071833;28;20288;-60
2021/07/24 06:31:08;;;;;;;16.17;14.57;;;;;;;;;;5071794;28;20223;-61
2021/07/24 06:33:36;;;;;;;18.58;15.02;;;;;;;;;;5071615;28;20196;-60
2021/07/24 06:36:05;;;;;;;18.25;14.93;;;;;;;;;;5059586;28;20193;-61
2021/07/24 06:38:33;;;;;;;16.23;14.50;;;;;;;;;;5051849;28;20201;-61
2021/07/24 06:41:05;;;;;;;16.67;14.70;;;;;;;;;;5051839;28;20213;-61
2021/07/24 06:43:34;;;;;;;15.00;13.45;;;;;;;;;;5056944;28;20232;-61
2021/07/24 06:46:10;;;;;;;16.88;15.07;;;;;;;;;;5071765;28;20196;-60
2021/07/24 06:48:38;;;;;;;16.60;14.90;;;;;;;;;;5071829;28;20185;-62
2021/07/24 06:51:07;;;;;;;18.98;15.48;;;;;;;;;;5071812;28;20197;-62
2021/07/24 06:53:36;;;;;;;18.08;15.63;;;;;;;;;;5071927;28;20201;-60
2021/07/24 06:56:04;;;;;;;17.05;15.25;;;;;;;;;;5071490;28;20671;-60
2021/07/24 06:58:34;;;;;;;18.70;15.38;;;;;;;;;;5071196;28;20204;-61
2021/07/24 07:01:05;;;;;;;15.95;14.23;;;;;;;;;;5071146;28;20707;-62
2021/07/24 07:03:34;;;;;;;16.77;15.02;;;;;;;;;;5071675;28;20189;-61
2021/07/24 07:06:05;;;;;;;16.90;15.20;;;;;;;;;;5071616;28;20204;-62
2021/07/24 07:08:33;;;;;;;15.32;13.68;;;;;;;;;;5074831;28;20185;-61
2021/07/24 07:11:03;;;;;;;16.05;14.32;;;;;;;;;;5074593;28;20273;-61
2021/07/24 07:13:31;;;;;;;16.33;14.75;;;;;;;;;;5069367;28;20296;-61
2021/07/24 07:16:03;;;;;;;16.90;15.07;;;;;;;;;;5054965;28;20220;-62
2021/07/24 07:18:31;;;;;;;17.42;15.63;;;;;;;;;;5055232;28;20185;-61
2021/07/24 07:21:00;;;;;;;17.13;14.90;;;;;;;;;;5054870;28;20232;-60
2021/07/24 07:23:28;;;;;;;16.42;14.65;;;;;;;;;;5054978;28;20314;-61
2021/07/24 07:25:56;;;;;;;17.00;15.38;;;;;;;;;;5054835;28;20245;-60
2021/07/24 07:28:24;;;;;;;17.13;15.43;;;;;;;;;;5054658;28;20297;-61
2021/07/24 07:30:52;;;;;;;20.38;16.33;;;;;;;;;;5054685;28;20292;-61
2021/07/24 07:33:22;;;;;;;17.17;15.38;;;;;;;;;;5054102;28;20206;-61
2021/07/24 07:35:50;;;;;;;19.48;17.48;;;;;;;;;;5054549;28;20243;-61
2021/07/24 07:38:18;;;;;;;17.08;15.27;;;;;;;;;;5055150;28;20211;-64
2021/07/24 07:40:46;;;;;;;17.30;15.50;;;;;;;;;;5054671;28;20284;-61
2021/07/24 07:43:16;;;;;;;17.02;15.27;;;;;;;;;;5054155;28;20229;-62
2021/07/24 07:45:44;;;;;;;18.10;16.23;;;;;;;;;;5053875;28;20300;-62
2021/07/24 07:48:12;;;;;;;18.33;15.20;;;;;;;;;;5054086;28;20201;-61
2021/07/24 07:50:43;;;;;;;17.20;15.40;;;;;;;;;;5053844;28;20553;-62
2021/07/24 07:53:11;;;;;;;18.45;16.55;;;;;;;;;;5070834;28;20508;-60
2021/07/24 07:55:41;;;;;;;17.42;15.57;;;;;;;;;;5074289;28;20205;-60
2021/07/24 07:58:14;;;;;;;17.48;15.48;;;;;;;;;;5073887;28;20205;-61
2021/07/24 08:00:42;;;;;;;16.80;15.00;;;;;;;;;;5073867;28;20276;-63
2021/07/24 08:03:10;;;;;;;20.02;15.95;;;;;;;;;;5073965;28;20213;-61
2021/07/24 08:05:39;;;;;;;16.08;14.48;;;;;;;;;;5074028;28;20197;-62
2021/07/24 08:08:08;;;;;;;17.67;15.90;;;;;;;;;;5074190;28;20204;-60
2021/07/24 08:10:37;;;;;;;17.30;15.48;;;;;;;;;;5074342;28;20287;-61
2021/07/24 08:13:12;;;;;;;16.25;14.70;;;;;;;;;;5073717;28;20209;-61
2021/07/24 08:15:40;;;;;;;18.38;16.30;;;;;;;;;;5073898;28;20646;-61
2021/07/24 08:18:08;;;;;;;17.10;15.30;;;;;;;;;;5071774;28;20198;-61
2021/07/24 08:20:41;;;;;;;16.55;14.80;;;;;;;;;;5073537;28;20196;-60
2021/07/24 08:23:13;;;;;;;17.35;15.38;;;;;;;;;;5066849;28;20259;-61
2021/07/24 08:25:41;;;;;;;19.77;16.40;;;;;;;;;;5073595;28;20272;-61
2021/07/24 08:28:10;;;;;;;16.60;14.90;;;;;;;;;;5073428;28;20243;-61
2021/07/24 08:30:38;;;;;;;18.25;16.13;;;;;;;;;;5073355;28;20196;-60
2021/07/24 08:33:07;;;;;;;16.75;14.95;;;;;;;;;;5073230;28;20739;-61
2021/07/24 08:35:35;;;;;;;16.85;15.15;;;;;;;;;;5073209;28;20224;-59
2021/07/24 08:38:03;;;;;;;16.20;14.52;;;;;;;;;;5073261;28;20212;-60
2021/07/24 08:40:32;;;;;;;16.75;14.95;;;;;;;;;;5072897;28;20210;-61
2021/07/24 08:43:04;;;;;;;17.58;15.20;;;;;;;;;;5071758;28;20221;-63
2021/07/24 08:45:32;;;;;;;16.77;15.07;;;;;;;;;;5053465;28;20598;-64
2021/07/24 08:48:01;;;;;;;16.88;15.27;;;;;;;;;;5053464;28;20296;-63
2021/07/24 08:50:30;;;;;;;18.33;16.52;;;;;;;;;;5053720;28;20247;-63
2021/07/24 08:53:03;;;;;;;16.27;14.65;;;;;;;;;;5068330;28;20219;-64
2021/07/24 08:55:34;;;;;;;16.90;15.27;;;;;;;;;;5073470;28;20217;-62
2021/07/24 08:58:03;;;;;;;15.85;14.27;;;;;;;;;;5073180;28;20231;-64
2021/07/24 09:00:31;;;;;;;15.75;14.05;;;;;;;;;;5073099;28;20209;-62
2021/07/24 09:03:01;;;;;;;16.25;14.65;;;;;;;;;;5072999;28;20220;-62
2021/07/24 09:05:30;;;;;;;16.02;14.50;;;;;;;;;;5072659;28;20224;-62
2021/07/24 09:07:59;;;;;;;16.73;14.98;;;;;;;;;;5072722;28;20643;-63
2021/07/24 09:10:27;;;;;;;17.33;15.50;;;;;;;;;;5072768;28;20295;-62
2021/07/24 09:12:58;;;;;;;17.70;16.00;;;;;;;;;;5072598;28;20219;-62
2021/07/24 09:15:26;;;;;;;16.48;14.52;;;;;;;;;;5072542;28;20185;-61
2021/07/24 09:17:54;;;;;;;16.70;15.00;;;;;;;;;;5072224;28;20291;-62
2021/07/24 09:20:26;;;;;;;17.00;13.38;;;;;;;;;;5073049;28;20295;-63
2021/07/24 09:22:54;;;;;;;18.65;14.98;;;;;;;;;;5072626;28;20677;-62
2021/07/24 09:25:23;;;;;;;17.60;15.80;;;;;;;;;;5072288;28;20659;-62
2021/07/24 09:27:52;;;;;;;16.33;14.55;;;;;;;;;;5072295;28;20210;-61
2021/07/24 09:30:34;;;;;;;16.77;15.05;;;;;;;;;;5071700;28;20262;-63
2021/07/24 09:33:04;;;;;;;16.77;15.07;;;;;;;;;;5071952;28;20188;-63
2021/07/24 09:35:35;;;;;;;17.55;15.25;;;;;;;;;;5072439;28;20227;-64
2021/07/24 09:38:03;;;;;;;16.30;14.60;;;;;;;;;;5072174;28;20284;-63
2021/07/24 09:40:34;;;;;;;17.23;15.55;;;;;;;;;;5071502;28;20204;-62
2021/07/24 09:43:02;;;;;;;15.48;13.88;;;;;;;;;;5071426;28;20762;-63
2021/07/24 09:45:30;;;;;;;16.48;14.85;;;;;;;;;;5072249;28;20200;-62
2021/07/24 09:48:15;;;;;;;15.88;14.27;;;;;;;;;;5072205;28;20204;-62
2021/07/24 09:50:48;;;;;;;15.00;13.57;;;;;;;;;;5072124;28;20189;-62
2021/07/24 09:53:34;;;;;;;14.82;13.27;;;;;;;;;;5072240;28;20193;-63
2021/07/24 09:56:03;;;;;;;17.00;15.30;;;;;;;;;;5071979;28;20672;-62
2021/07/24 09:58:31;;;;;;;15.15;13.60;;;;;;;;;;5071800;28;20211;-62
2021/07/24 10:01:04;;;;;;;14.88;13.20;;;;;;;;;;5071565;28;20205;-62
2021/07/24 10:03:35;;;;;;;15.35;13.85;;;;;;;;;;5072203;28;20213;-60
2021/07/24 10:06:10;;;;;;;15.73;14.15;;;;;;;;;;5071996;28;20191;-61
2021/07/24 10:08:39;;;;;;;15.27;13.68;;;;;;;;;;5071814;28;20664;-60
2021/07/24 10:11:08;;;;;;;14.10;12.70;;;;;;;;;;5071722;28;20678;-60
2021/07/24 10:13:37;;;;;;;16.40;14.75;;;;;;;;;;5065606;28;20635;-60
2021/07/24 10:16:05;;;;;;;15.43;13.73;;;;;;;;;;5051768;28;20197;-59
2021/07/24 10:18:35;;;;;;;14.77;13.27;;;;;;;;;;5051527;28;20201;-62
2021/07/24 10:21:04;;;;;;;15.02;13.45;;;;;;;;;;5051815;28;20197;-61
2021/07/24 10:23:33;;;;;;;16.90;13.48;;;;;;;;;;5051561;28;20257;-61
2021/07/24 10:26:07;;;;;;;14.52;13.02;;;;;;;;;;5051459;28;20224;-61
2021/07/24 10:28:36;;;;;;;14.00;12.63;;;;;;;;;;5051365;28;20186;-62
2021/07/24 10:31:13;;;;;;;13.70;12.40;;;;;;;;;;5051624;28;20212;-61
2021/07/24 10:33:43;;;;;;;14.13;12.73;;;;;;;;;;5051744;28;20181;-61
2021/07/24 10:36:15;;;;;;;13.80;12.05;;;;;;;;;;5051829;28;20268;-63
2021/07/24 10:39:03;;;;;;;13.25;12.05;;;;;;;;;;5051182;28;20281;-61
2021/07/24 10:41:38;;;;;;;13.10;11.90;;;;;;;;;;5051870;28;20288;-61
2021/07/24 10:44:07;;;;;;;13.18;11.98;;;;;;;;;;5055079;28;20251;-61
2021/07/24 10:47:09;;;;;;;13.48;11.18;;;;;;;;;;5055155;28;20621;-61
2021/07/24 10:49:58;;;;;;;12.32;11.02;;;;;;;;;;5055226;28;20280;-61
2021/07/24 10:52:27;;;;;;;13.07;11.77;;;;;;;;;;5065341;28;20534;-63
2021/07/24 10:55:12;;;;;;;12.48;11.25;;;;;;;;;;5075297;28;20296;-61
2021/07/24 10:57:59;;;;;;;12.27;11.00;;;;;;;;;;5075116;28;20656;-62
2021/07/24 11:00:35;;;;;;;12.45;11.15;;;;;;;;;;5075029;28;20196;-63
2021/07/24 11:03:03;;;;;;;12.20;11.10;;;;;;;;;;5075036;28;20220;-62
2021/07/24 11:05:39;;;;;;;12.93;11.02;;;;;;;;;;5076785;28;20627;-63
2021/07/24 11:08:07;;;;;;;12.20;11.00;;;;;;;;;;5076056;28;20284;-62
2021/07/24 11:10:35;;;;;;;12.63;11.32;;;;;;;;;;5076040;28;20292;-62
2021/07/24 11:13:03;;;;;;;12.77;11.40;;;;;;;;;;5074833;28;20287;-64
2021/07/24 11:15:46;;;;;;;12.13;11.02;;;;;;;;;;5074712;28;20201;-68
2021/07/24 11:18:22;;;;;;;11.50;10.50;;;;;;;;;;5072546;28;20215;-67
2021/07/24 11:20:53;;;;;;;11.15;10.15;;;;;;;;;;5074855;28;20210;-68
2021/07/24 11:23:21;;;;;;;13.82;11.13;;;;;;;;;;5074536;28;20534;-65
2021/07/24 11:25:51;;;;;;;11.30;10.20;;;;;;;;;;5074747;28;20560;-67
2021/07/24 11:28:21;;;;;;;11.15;10.15;;;;;;;;;;5074554;28;20191;-64
2021/07/24 11:30:58;;;;;;;12.65;9.38;;;;;;;;;;5074349;28;20746;-64
2021/07/24 11:33:29;;;;;;;10.10;9.20;;;;;;;;;;5074577;28;20192;-62
2021/07/24 11:36:02;;;;;;;11.10;10.00;;;;;;;;;;5074505;28;20245;-63
2021/07/24 11:38:31;;;;;;;10.98;9.93;;;;;;;;;;5073989;28;20185;-61
2021/07/24 11:41:00;;;;;;;11.20;10.20;;;;;;;;;;5074340;28;20259;-61
2021/07/24 11:43:29;;;;;;;11.40;10.30;;;;;;;;;;5073788;28;20232;-65
2021/07/24 11:46:05;;;;;;;11.52;10.38;;;;;;;;;;5072615;28;20296;-64
2021/07/24 11:48:34;;;;;;;11.18;10.18;;;;;;;;;;5054370;28;20196;-65
2021/07/24 11:51:06;;;;;;;10.77;9.77;;;;;;;;;;5054259;28;20351;-63
2021/07/24 11:53:35;;;;;;;10.60;9.55;;;;;;;;;;5072660;28;20288;-64
2021/07/24 11:56:03;;;;;;;10.30;9.40;;;;;;;;;;5059055;28;20697;-65
2021/07/24 11:58:32;;;;;;;10.55;9.55;;;;;;;;;;5053967;28;20205;-65
2021/07/24 12:01:01;;;;;;;10.90;9.25;;;;;;;;;;5054199;28;20201;-65
2021/07/24 12:03:30;;;;;;;11.43;9.98;;;;;;;;;;5053765;28;20223;-65
2021/07/24 12:06:11;;;;;;;11.35;9.48;;;;;;;;;;5054042;28;20209;-65
2021/07/24 12:08:41;;;;;;;10.30;9.20;;;;;;;;;;5053980;28;20185;-64
2021/07/24 12:11:13;;;;;;;9.55;8.65;;;;;;;;;;5053378;28;20680;-65
2021/07/24 12:13:42;;;;;;;9.80;8.88;;;;;;;;;;5060099;28;20702;-65
2021/07/24 12:16:11;;;;;;;11.70;10.30;;;;;;;;;;5073778;28;20804;-65
2021/07/24 12:18:41;;;;;;;11.32;10.05;;;;;;;;;;5073770;28;20205;-65
2021/07/24 12:21:11;;;;;;;10.32;9.38;;;;;;;;;;5073678;28;20197;-64
2021/07/24 12:23:44;;;;;;;9.57;8.73;;;;;;;;;;5073528;28;20769;-66
2021/07/24 12:26:20;;;;;;;9.80;8.80;;;;;;;;;;5073471;28;20185;-64
2021/07/24 12:28:49;;;;;;;9.77;8.73;;;;;;;;;;5072993;28;20221;-65
2021/07/24 12:31:21;;;;;;;10.20;9.30;;;;;;;;;;5073207;28;20627;-65
2021/07/24 12:33:50;;;;;;;8.90;8.10;;;;;;;;;;5073234;28;20192;-65
2021/07/24 12:36:20;;;;;;;8.68;7.88;;;;;;;;;;5073348;28;20208;-64
2021/07/24 12:38:49;;;;;;;9.73;8.75;;;;;;;;;;5072934;28;20220;-65
2021/07/24 12:41:17;;;;;;;8.57;7.68;;;;;;;;;;5073280;28;20234;-66
2021/07/24 12:44:01;;;;;;;9.38;8.45;;;;;;;;;;5072418;28;20241;-65
2021/07/24 12:46:30;;;;;;;9.77;8.80;;;;;;;;;;5072954;28;20262;-64
2021/07/24 12:48:58;;;;;;;9.70;8.63;;;;;;;;;;5073243;28;20200;-64
2021/07/24 12:51:27;;;;;;;11.18;9.00;;;;;;;;;;5073078;28;20292;-65
2021/07/24 12:54:09;;;;;;;9.63;8.73;;;;;;;;;;5072935;28;20664;-65
2021/07/24 12:56:38;;;;;;;10.02;9.13;;;;;;;;;;5073173;28;20208;-65
2021/07/24 12:59:07;;;;;;;10.23;9.23;;;;;;;;;;5072105;28;20200;-65
2021/07/24 13:01:35;;;;;;;9.63;8.73;;;;;;;;;;5073057;28;20206;-65
2021/07/24 13:04:03;;;;;;;11.10;10.00;;;;;;;;;;5072873;28;20227;-64
2021/07/24 13:06:32;;;;;;;9.25;8.35;;;;;;;;;;5072686;28;20215;-65
2021/07/24 13:09:00;;;;;;;10.57;9.20;;;;;;;;;;5072732;28;20204;-65
2021/07/24 13:11:29;;;;;;;8.90;8.10;;;;;;;;;;5072519;28;20208;-64
2021/07/24 13:13:58;;;;;;;9.82;8.88;;;;;;;;;;5063614;28;20212;-65
2021/07/24 13:16:28;;;;;;;9.88;8.90;;;;;;;;;;5052636;28;20201;-65
2021/07/24 13:18:57;;;;;;;9.80;8.77;;;;;;;;;;5052830;28;20191;-64
2021/07/24 13:21:25;;;;;;;10.30;9.30;;;;;;;;;;5052962;28;20205;-65
2021/07/24 13:23:57;;;;;;;9.93;8.93;;;;;;;;;;5052489;28;20285;-65
2021/07/24 13:29:14;;;;;;;9.90;8.93;;;;;;;;;;5052812;28;20530;-64
2021/07/24 13:31:43;;;;;;;9.65;8.65;;;;;;;;;;5052938;28;20281;-66
2021/07/24 13:34:11;;;;;;;10.52;9.23;;;;;;;;;;5052719;28;20220;-64
2021/07/24 13:36:40;;;;;;;9.48;8.57;;;;;;;;;;5052628;28;20205;-64
2021/07/24 13:39:09;;;;;;;9.45;8.65;;;;;;;;;;5052207;28;20760;-65
2021/07/24 13:41:37;;;;;;;9.60;8.80;;;;;;;;;;5052530;28;20296;-65
2021/07/24 13:44:05;;;;;;;9.60;8.75;;;;;;;;;;5051822;28;20233;-65
2021/07/24 13:46:35;;;;;;;10.38;9.38;;;;;;;;;;5052313;28;20201;-65
2021/07/24 13:49:04;;;;;;;10.38;9.48;;;;;;;;;;5052352;28;20207;-64
2021/07/24 13:51:32;;;;;;;10.70;9.60;;;;;;;;;;5055395;28;20203;-65
2021/07/24 13:54:00;;;;;;;9.98;9.07;;;;;;;;;;5072285;28;20209;-64
2021/07/24 13:56:28;;;;;;;10.05;9.00;;;;;;;;;;5072221;28;20259;-64
2021/07/24 13:58:57;;;;;;;11.52;9.60;;;;;;;;;;5071744;28;20239;-65
2021/07/24 14:01:25;;;;;;;10.30;9.35;;;;;;;;;;5072194;28;20285;-64
2021/07/24 14:03:55;;;;;;;10.13;9.15;;;;;;;;;;5072447;28;20200;-64
2021/07/24 14:06:23;;;;;;;9.95;9.05;;;;;;;;;;5072091;28;20221;-65
2021/07/24 14:08:51;;;;;;;9.80;8.85;;;;;;;;;;5072100;28;20197;-63
2021/07/24 14:11:20;;;;;;;10.40;9.32;;;;;;;;;;5071906;28;20753;-64
2021/07/24 14:13:49;;;;;;;10.75;9.00;;;;;;;;;;5071947;28;20311;-64
2021/07/24 14:16:17;;;;;;;10.02;8.95;;;;;;;;;;5071538;28;20200;-64
2021/07/24 14:18:46;;;;;;;9.55;8.75;;;;;;;;;;5071899;28;20831;-64
2021/07/24 14:21:19;;;;;;;9.45;8.52;;;;;;;;;;5071690;28;20231;-63
2021/07/24 14:23:47;;;;;;;11.77;8.85;;;;;;;;;;5071723;28;20277;-65
2021/07/24 14:26:15;;;;;;;9.82;8.85;;;;;;;;;;5071634;28;20612;-64
2021/07/24 14:28:44;;;;;;;10.13;9.13;;;;;;;;;;5071619;28;20211;-64
2021/07/24 14:31:12;;;;;;;10.00;9.00;;;;;;;;;;5071936;28;20211;-66
2021/07/24 14:33:40;;;;;;;9.77;8.80;;;;;;;;;;5066846;28;20197;-64
2021/07/24 14:36:09;;;;;;;10.38;8.65;;;;;;;;;;5051325;28;20658;-64
2021/07/24 14:38:39;;;;;;;9.98;9.00;;;;;;;;;;5051728;28;20201;-64
2021/07/24 14:41:09;;;;;;;9.73;8.52;;;;;;;;;;5051499;28;20205;-64
2021/07/24 14:43:38;;;;;;;9.10;8.40;;;;;;;;;;5057296;28;20900;-64